createdAt,value
2022-10-19T00:01:38.809Z,13.64
2022-10-19T00:04:08.773Z,13.64
2022-10-19T00:06:40.248Z,13.65
2022-10-19T00:09:12.910Z,13.67
2022-10-19T00:11:45.461Z,13.69
2022-10-19T00:14:17.718Z,13.70
2022-10-19T00:16:49.909Z,13.68
2022-10-19T00:19:22.697Z,13.71
2022-10-19T00:21:53.360Z,13.73
2022-10-19T00:24:23.019Z,13.71
2022-10-19T00:26:51.579Z,13.70
2022-10-19T00:29:20.122Z,13.69
2022-10-19T00:31:51.050Z,13.70
2022-10-19T00:34:20.141Z,13.70
2022-10-19T00:36:49.109Z,13.71
2022-10-19T00:39:21.171Z,13.73
2022-10-19T00:41:50.196Z,13.74
2022-10-19T00:44:59.489Z,13.74
2022-10-19T00:47:28.464Z,13.72
2022-10-19T00:50:00.025Z,13.74
2022-10-19T00:52:30.243Z,13.74
2022-10-19T00:55:02.306Z,13.76
2022-10-19T00:57:33.536Z,13.78
2022-10-19T01:00:08.205Z,13.78
2022-10-19T01:02:37.840Z,13.75
2022-10-19T01:05:08.501Z,13.77
2022-10-19T01:07:37.332Z,13.77
2022-10-19T01:10:09.768Z,13.76
2022-10-19T01:13:16.383Z,13.78
2022-10-19T01:16:01.629Z,13.79
2022-10-19T01:18:44.910Z,13.81
2022-10-19T01:21:24.547Z,13.81
2022-10-19T01:24:50.619Z,13.82
2022-10-19T01:28:01.296Z,13.84
2022-10-19T01:30:47.799Z,13.85
2022-10-19T01:33:38.726Z,13.85
2022-10-19T01:36:23.196Z,13.86
2022-10-19T01:39:01.454Z,13.85
2022-10-19T01:41:38.736Z,13.84
2022-10-19T01:44:17.701Z,13.85
2022-10-19T01:46:58.745Z,13.84
2022-10-19T01:49:36.530Z,13.83
2022-10-19T01:52:09.554Z,13.84
2022-10-19T01:54:44.292Z,13.86
2022-10-19T01:57:18.506Z,13.85
2022-10-19T01:59:50.893Z,13.84
2022-10-19T02:02:23.240Z,13.84
2022-10-19T02:04:54.226Z,13.87
2022-10-19T02:07:25.983Z,13.87
2022-10-19T02:09:55.139Z,13.88
2022-10-19T02:12:25.322Z,13.89
2022-10-19T02:14:59.405Z,13.89
2022-10-19T02:17:36.779Z,13.88
2022-10-19T02:20:07.005Z,13.91
2022-10-19T02:22:35.729Z,13.90
2022-10-19T02:25:04.950Z,13.90
2022-10-19T02:27:34.061Z,13.88
2022-10-19T02:30:02.790Z,13.90
2022-10-19T02:32:33.256Z,13.90
2022-10-19T02:35:03.327Z,13.91
2022-10-19T02:37:32.453Z,13.93
2022-10-19T02:40:01.327Z,13.95
2022-10-19T02:42:35.890Z,13.95
2022-10-19T02:45:14.462Z,13.95
2022-10-19T02:47:53.153Z,13.94
2022-10-19T02:50:24.000Z,13.94
2022-10-19T02:52:53.426Z,13.91
2022-10-19T02:55:22.579Z,13.89
2022-10-19T02:57:54.302Z,13.87
2022-10-19T03:00:23.827Z,13.86
2022-10-19T03:02:55.018Z,13.89
2022-10-19T03:05:24.796Z,13.89
2022-10-19T03:07:53.936Z,13.91
2022-10-19T03:10:22.939Z,13.91
2022-10-19T03:12:52.688Z,13.91
2022-10-19T03:15:25.561Z,13.93
2022-10-19T03:17:57.726Z,13.94
2022-10-19T03:20:26.819Z,13.97
2022-10-19T03:22:55.767Z,13.98
2022-10-19T03:25:25.161Z,13.98
2022-10-19T03:27:55.879Z,14.01
2022-10-19T03:30:25.435Z,14.01
2022-10-19T03:32:55.595Z,14.00
2022-10-19T03:35:24.285Z,14.03
2022-10-19T03:37:53.783Z,14.06
2022-10-19T03:40:24.323Z,14.08
2022-10-19T03:42:53.062Z,14.08
2022-10-19T03:45:22.340Z,14.09
2022-10-19T03:47:51.278Z,14.10
2022-10-19T03:50:21.496Z,14.10
2022-10-19T03:52:51.240Z,14.10
2022-10-19T03:55:20.309Z,14.10
2022-10-19T03:57:50.991Z,14.10
2022-10-19T04:00:20.423Z,14.12
2022-10-19T04:02:49.289Z,14.11
2022-10-19T04:05:18.027Z,14.11
2022-10-19T04:07:48.279Z,14.09
2022-10-19T04:10:17.914Z,14.08
2022-10-19T04:12:50.485Z,14.10
2022-10-19T04:15:22.040Z,14.11
2022-10-19T04:17:51.192Z,14.13
2022-10-19T04:20:20.609Z,14.15
2022-10-19T04:22:51.118Z,14.13
2022-10-19T04:25:21.311Z,14.13
2022-10-19T04:27:53.125Z,14.15
2022-10-19T04:30:23.847Z,14.13
2022-10-19T04:33:03.675Z,14.16
2022-10-19T04:35:33.720Z,14.18
2022-10-19T04:38:05.289Z,14.19
2022-10-19T04:40:38.831Z,14.20
2022-10-19T04:43:18.358Z,14.19
2022-10-19T04:45:48.879Z,14.21
2022-10-19T04:48:17.650Z,14.21
2022-10-19T04:50:47.520Z,14.21
2022-10-19T04:55:55.209Z,14.20
2022-10-19T04:58:25.520Z,14.16
2022-10-19T05:00:56.010Z,14.12
2022-10-19T05:03:25.913Z,14.14
2022-10-19T05:05:55.901Z,14.13
2022-10-19T05:08:31.277Z,14.15
2022-10-19T05:11:04.949Z,14.11
2022-10-19T05:13:35.384Z,14.09
2022-10-19T05:16:07.767Z,14.09
2022-10-19T05:18:38.118Z,14.06
2022-10-19T05:21:10.151Z,14.02
2022-10-19T05:23:42.624Z,14.01
2022-10-19T05:26:15.103Z,13.99
2022-10-19T05:28:44.318Z,13.95
2022-10-19T05:31:18.698Z,13.96
2022-10-19T05:33:49.823Z,13.98
2022-10-19T05:36:22.414Z,13.99
2022-10-19T05:38:54.047Z,14.01
2022-10-19T05:41:25.162Z,14.01
2022-10-19T05:43:57.071Z,14.03
2022-10-19T05:46:28.508Z,14.03
2022-10-19T05:48:59.617Z,14.03
2022-10-19T05:51:30.043Z,14.04
2022-10-19T05:54:01.335Z,14.05
2022-10-19T05:56:33.188Z,14.06
2022-10-19T05:59:06.880Z,14.07
2022-10-19T06:01:36.917Z,14.08
2022-10-19T06:04:07.569Z,14.09
2022-10-19T06:06:37.683Z,14.09
2022-10-19T06:09:12.924Z,14.09
2022-10-19T06:11:45.309Z,14.11
2022-10-19T06:14:16.827Z,14.12
2022-10-19T06:16:46.514Z,14.13
2022-10-19T06:19:17.022Z,14.13
2022-10-19T06:21:47.328Z,14.13
2022-10-19T06:24:18.893Z,14.16
2022-10-19T06:26:48.431Z,14.18
2022-10-19T06:29:23.823Z,14.20
2022-10-19T06:31:54.462Z,14.21
2022-10-19T06:34:23.420Z,14.22
2022-10-19T06:36:52.640Z,14.23
2022-10-19T06:39:23.037Z,14.25
2022-10-19T06:41:56.784Z,14.25
2022-10-19T06:44:27.648Z,14.26
2022-10-19T06:46:56.272Z,14.27
2022-10-19T06:49:26.492Z,14.28
2022-10-19T06:51:57.438Z,14.31
2022-10-19T06:54:28.775Z,14.32
2022-10-19T06:56:58.212Z,14.34
2022-10-19T06:59:28.693Z,14.34
2022-10-19T07:02:08.335Z,14.38
2022-10-19T07:04:38.132Z,14.36
2022-10-19T07:07:08.953Z,14.32
2022-10-19T07:09:40.387Z,14.33
2022-10-19T07:12:11.127Z,14.33
2022-10-19T07:14:41.331Z,14.33
2022-10-19T07:17:15.171Z,14.34
2022-10-19T07:19:44.761Z,14.35
2022-10-19T07:22:18.640Z,14.36
2022-10-19T07:24:52.783Z,14.38
2022-10-19T07:27:22.144Z,14.38
2022-10-19T07:29:52.571Z,14.38
2022-10-19T07:32:21.945Z,14.37
2022-10-19T07:34:51.075Z,14.38
2022-10-19T07:37:22.308Z,14.39
2022-10-19T07:39:53.535Z,14.40
2022-10-19T07:44:52.780Z,14.44
2022-10-19T07:47:26.227Z,14.46
2022-10-19T07:52:48.178Z,14.42
2022-10-19T07:58:46.015Z,14.39
2022-10-19T08:01:21.158Z,14.38
2022-10-19T08:06:44.076Z,14.38
2022-10-19T08:09:33.319Z,14.37
2022-10-19T08:12:12.369Z,14.36
2022-10-19T08:14:44.602Z,14.38
2022-10-19T08:17:17.980Z,14.40
2022-10-19T08:19:48.871Z,14.39
2022-10-19T08:22:20.293Z,14.44
2022-10-19T08:24:50.119Z,14.45
2022-10-19T08:27:20.884Z,14.42
2022-10-19T08:29:49.391Z,14.44
2022-10-19T08:32:19.589Z,14.36
2022-10-19T08:34:50.910Z,14.37
2022-10-19T08:37:40.827Z,14.37
2022-10-19T08:40:22.544Z,14.35
2022-10-19T08:43:04.492Z,14.34
2022-10-19T08:45:54.113Z,14.38
2022-10-19T08:51:16.840Z,14.35
2022-10-19T08:54:05.892Z,14.35
2022-10-19T08:59:53.230Z,14.37
2022-10-19T09:02:47.492Z,14.38
2022-10-19T09:05:49.758Z,14.39
2022-10-19T09:08:27.884Z,14.41
2022-10-19T09:11:01.204Z,14.38
2022-10-19T09:14:04.345Z,14.40
2022-10-19T09:16:37.129Z,14.41
2022-10-19T09:19:23.052Z,14.44
2022-10-19T09:22:00.889Z,14.43
2022-10-19T09:24:38.238Z,14.44
2022-10-19T09:27:21.957Z,14.42
2022-10-19T09:33:00.544Z,14.38
2022-10-19T09:35:43.579Z,14.39
2022-10-19T09:38:20.375Z,14.40
2022-10-19T09:40:52.035Z,14.41
2022-10-19T09:43:25.593Z,14.42
2022-10-19T09:46:07.832Z,14.42
2022-10-19T09:48:53.139Z,14.43
2022-10-19T09:51:23.303Z,14.45
2022-10-19T09:54:09.187Z,14.46
2022-10-19T09:56:41.804Z,14.42
2022-10-19T09:59:30.579Z,14.43
2022-10-19T10:02:20.744Z,14.42
2022-10-19T10:05:08.031Z,14.39
2022-10-19T10:07:41.892Z,14.38
2022-10-19T10:10:28.224Z,14.38
2022-10-19T10:16:12.169Z,14.42
2022-10-19T10:21:52.848Z,14.47
2022-10-19T10:24:24.190Z,14.49
2022-10-19T10:29:58.721Z,14.56
2022-10-19T10:32:29.089Z,14.58
2022-10-19T10:35:05.565Z,14.59
2022-10-19T10:37:42.463Z,14.63
2022-10-19T10:40:26.579Z,14.62
2022-10-19T10:43:03.519Z,14.63
2022-10-19T10:45:39.324Z,14.65
2022-10-19T10:48:30.775Z,14.65
2022-10-19T10:51:02.561Z,14.66
2022-10-19T10:53:39.974Z,14.66
2022-10-19T10:56:26.438Z,14.64
2022-10-19T10:59:06.255Z,14.61
2022-10-19T11:01:42.661Z,14.59
2022-10-19T11:04:19.164Z,14.58
2022-10-19T11:06:56.593Z,14.55
2022-10-19T11:09:38.815Z,14.59
2022-10-19T11:12:15.885Z,14.58
2022-10-19T11:14:51.293Z,14.61
2022-10-19T11:17:29.374Z,14.66
2022-10-19T11:19:58.448Z,14.70
2022-10-19T11:22:37.210Z,14.74
2022-10-19T11:25:38.009Z,14.79
2022-10-19T11:28:28.852Z,14.81
2022-10-19T11:31:12.353Z,14.84
2022-10-19T11:34:00.633Z,14.87
2022-10-19T11:37:03.527Z,14.89
2022-10-19T11:40:08.534Z,14.90
2022-10-19T11:43:00.389Z,14.91
2022-10-19T11:45:49.643Z,14.93
2022-10-19T11:52:16.251Z,14.99
2022-10-19T11:55:02.690Z,15.02
2022-10-19T12:00:54.055Z,15.11
2022-10-19T12:04:06.911Z,15.13
2022-10-19T12:06:52.738Z,15.17
2022-10-19T12:09:50.047Z,15.17
2022-10-19T12:12:33.915Z,15.17
2022-10-19T12:15:24.889Z,15.18
2022-10-19T12:18:05.663Z,15.19
2022-10-19T12:20:43.849Z,15.19
2022-10-19T12:23:32.842Z,15.19
2022-10-19T12:31:53.763Z,15.19
2022-10-19T12:34:55.452Z,15.23
2022-10-19T12:37:57.405Z,15.22
2022-10-19T12:40:39.188Z,15.27
2022-10-19T12:43:23.493Z,15.27
2022-10-19T12:46:21.992Z,15.28
2022-10-19T12:50:02.307Z,15.30
2022-10-19T12:52:45.525Z,15.31
2022-10-19T12:55:35.107Z,15.34
2022-10-19T12:58:18.482Z,15.30
2022-10-19T13:01:02.382Z,15.33
2022-10-19T13:03:38.751Z,15.35
2022-10-19T13:06:36.794Z,15.34
2022-10-19T13:15:56.854Z,15.23
2022-10-19T13:19:23.485Z,15.17
2022-10-19T13:22:30.809Z,15.16
2022-10-19T13:25:29.674Z,15.08
2022-10-19T13:28:41.022Z,15.06
2022-10-19T13:31:28.771Z,15.06
2022-10-19T13:34:11.611Z,15.06
2022-10-19T13:43:15.946Z,15.09
2022-10-19T13:45:59.589Z,15.06
2022-10-19T13:48:55.403Z,15.05
2022-10-19T13:51:40.119Z,15.06
2022-10-19T13:54:45.418Z,15.06
2022-10-19T13:57:51.502Z,15.08
2022-10-19T14:00:25.462Z,15.05
2022-10-19T14:03:21.213Z,15.07
2022-10-19T14:06:13.845Z,15.09
2022-10-19T14:09:23.280Z,15.07
2022-10-19T14:11:59.297Z,15.08
2022-10-19T14:14:45.350Z,15.11
2022-10-19T14:17:19.813Z,15.13
2022-10-19T14:19:53.044Z,15.13
2022-10-19T14:22:31.641Z,15.16
2022-10-19T14:25:10.853Z,15.11
2022-10-19T14:27:41.877Z,15.13
2022-10-19T14:30:27.875Z,15.15
2022-10-19T14:33:02.305Z,15.15
2022-10-19T14:35:38.811Z,15.14
2022-10-19T14:38:23.597Z,15.16
2022-10-19T14:43:37.654Z,15.16
2022-10-19T14:46:18.218Z,15.17
2022-10-19T14:48:49.371Z,15.17
2022-10-19T14:51:39.978Z,15.18
2022-10-19T14:54:29.217Z,15.16
2022-10-19T14:57:04.620Z,15.13
2022-10-19T15:02:46.552Z,15.12
2022-10-19T15:05:39.548Z,15.13
2022-10-19T15:08:14.437Z,15.13
2022-10-19T15:11:02.214Z,15.11
2022-10-19T15:13:42.348Z,15.10
2022-10-19T15:29:27.011Z,15.15
2022-10-19T15:32:29.888Z,15.14
2022-10-19T15:35:43.467Z,15.12
2022-10-19T15:38:49.088Z,15.10
2022-10-19T15:48:55.290Z,15.10
2022-10-19T15:51:56.448Z,15.10
2022-10-19T15:54:26.888Z,15.11
2022-10-19T15:57:09.667Z,15.10
2022-10-19T16:06:13.528Z,15.07
2022-10-19T16:09:51.870Z,15.06
2022-10-19T16:27:45.431Z,15.11
2022-10-19T16:37:07.862Z,15.10
2022-10-19T16:54:12.782Z,15.04
2022-10-19T16:56:47.183Z,15.00
2022-10-19T16:59:55.905Z,15.01
2022-10-19T17:02:27.945Z,15.00
2022-10-19T17:04:57.922Z,15.02
2022-10-19T17:07:26.496Z,15.00
2022-10-19T17:09:57.492Z,14.98
2022-10-19T17:12:26.720Z,14.96
2022-10-19T17:15:02.973Z,14.95
2022-10-19T17:17:44.164Z,14.97
2022-10-19T17:20:15.836Z,14.98
2022-10-19T17:22:44.459Z,14.99
2022-10-19T17:25:14.709Z,14.98
2022-10-19T17:27:43.357Z,15.00
2022-10-19T17:30:12.741Z,14.96
2022-10-19T17:32:41.362Z,14.94
2022-10-19T17:35:10.407Z,14.93
2022-10-19T17:37:39.162Z,14.93
2022-10-19T17:40:09.883Z,14.91
2022-10-19T17:42:39.806Z,14.91
2022-10-19T17:45:10.226Z,14.89
2022-10-19T17:47:38.840Z,14.87
2022-10-19T17:50:08.466Z,14.87
2022-10-19T17:52:37.935Z,14.87
2022-10-19T17:55:13.147Z,14.86
2022-10-19T17:57:43.565Z,14.86
2022-10-19T18:00:14.233Z,14.82
2022-10-19T18:02:46.095Z,14.83
2022-10-19T18:05:14.700Z,14.80
2022-10-19T18:07:45.888Z,14.80
2022-10-19T18:10:16.421Z,14.77
2022-10-19T18:12:46.380Z,14.73
2022-10-19T18:15:15.238Z,14.65
2022-10-19T18:17:43.979Z,14.60
2022-10-19T18:20:13.761Z,14.63
2022-10-19T18:25:21.792Z,14.65
2022-10-19T18:27:57.941Z,14.66
2022-10-19T18:30:26.600Z,14.67
2022-10-19T18:32:55.166Z,14.64
2022-10-19T18:35:24.235Z,14.61
2022-10-19T18:37:52.884Z,14.62
2022-10-19T18:40:21.434Z,14.67
2022-10-19T18:42:50.893Z,14.61
2022-10-19T18:45:21.653Z,14.60
2022-10-19T18:47:51.015Z,14.55
2022-10-19T18:50:19.811Z,14.55
2022-10-19T18:52:48.519Z,14.52
2022-10-19T18:55:17.406Z,14.48
2022-10-19T18:57:46.329Z,14.45
2022-10-19T19:00:16.795Z,14.41
2022-10-19T19:02:53.638Z,14.40
2022-10-19T19:05:23.890Z,14.39
2022-10-19T19:07:52.458Z,14.38
2022-10-19T19:10:21.609Z,14.38
2022-10-19T19:12:52.913Z,14.34
2022-10-19T19:15:21.672Z,14.33
2022-10-19T19:17:57.970Z,14.37
2022-10-19T19:20:26.679Z,14.38
2022-10-19T19:22:55.405Z,14.41
2022-10-19T19:25:23.962Z,14.40
2022-10-19T19:27:52.497Z,14.39
2022-10-19T19:30:21.135Z,14.38
2022-10-19T19:32:51.694Z,14.41
2022-10-19T19:35:20.202Z,14.38
2022-10-19T19:37:49.854Z,14.35
2022-10-19T19:40:18.717Z,14.35
2022-10-19T19:42:47.178Z,14.34
2022-10-19T19:45:15.890Z,14.36
2022-10-19T19:47:45.277Z,14.34
2022-10-19T19:50:15.155Z,14.32
2022-10-19T19:52:43.745Z,14.32
2022-10-19T19:55:12.137Z,14.26
2022-10-19T19:57:40.660Z,14.31
2022-10-19T20:00:11.102Z,14.32
2022-10-19T20:02:39.701Z,14.30
2022-10-19T20:05:09.052Z,14.29
2022-10-19T20:07:39.783Z,14.28
2022-10-19T20:10:09.991Z,14.32
2022-10-19T20:12:39.256Z,14.32
2022-10-19T20:15:09.117Z,14.32
2022-10-19T20:17:37.838Z,14.30
2022-10-19T20:20:08.564Z,14.26
2022-10-19T20:22:39.212Z,14.22
2022-10-19T20:25:09.141Z,14.23
2022-10-19T20:27:38.223Z,14.22
2022-10-19T20:30:09.549Z,14.20
2022-10-19T20:32:40.254Z,14.20
2022-10-19T20:35:10.755Z,14.18
2022-10-19T20:37:40.826Z,14.19
2022-10-19T20:40:13.378Z,14.19
2022-10-19T20:42:42.511Z,14.20
2022-10-19T20:45:13.174Z,14.22
2022-10-19T20:47:42.213Z,14.21
2022-10-19T20:50:12.308Z,14.20
2022-10-19T20:52:42.503Z,14.19
2022-10-19T20:55:12.110Z,14.20
2022-10-19T20:57:40.716Z,14.21
2022-10-19T21:00:11.058Z,14.20
2022-10-19T21:02:40.034Z,14.21
2022-10-19T21:05:10.553Z,14.18
2022-10-19T21:07:39.158Z,14.18
2022-10-19T21:10:10.872Z,14.17
2022-10-19T21:12:39.454Z,14.17
2022-10-19T21:15:09.940Z,14.18
2022-10-19T21:17:38.554Z,14.15
2022-10-19T21:20:10.087Z,14.16
2022-10-19T21:22:41.496Z,14.11
2022-10-19T21:25:12.798Z,14.13
2022-10-19T21:27:41.306Z,14.12
2022-10-19T21:30:11.213Z,14.13
2022-10-19T21:32:40.353Z,14.14
2022-10-19T21:35:10.103Z,14.09
2022-10-19T21:37:38.724Z,14.08
2022-10-19T21:40:09.442Z,14.09
2022-10-19T21:42:40.072Z,14.09
2022-10-19T21:45:29.298Z,14.12
2022-10-19T21:47:59.773Z,14.12
2022-10-19T21:50:29.082Z,14.13
2022-10-19T21:52:58.097Z,14.12
2022-10-19T21:55:26.740Z,14.13
2022-10-19T21:57:56.734Z,14.13
2022-10-19T22:00:25.519Z,14.13
2022-10-19T22:02:54.063Z,14.10
2022-10-19T22:05:22.844Z,14.10
2022-10-19T22:07:51.385Z,14.07
2022-10-19T22:10:20.905Z,14.07
2022-10-19T22:12:49.594Z,14.07
2022-10-19T22:15:20.815Z,14.05
2022-10-19T22:17:51.788Z,14.03
2022-10-19T22:20:20.519Z,14.03
2022-10-19T22:22:51.540Z,14.04
2022-10-19T22:25:23.356Z,14.02
2022-10-19T22:27:51.821Z,14.03
2022-10-19T22:30:21.737Z,14.03
2022-10-19T22:32:50.357Z,14.03
2022-10-19T22:35:19.121Z,14.03
2022-10-19T22:37:47.677Z,14.03
2022-10-19T22:40:17.549Z,14.03
2022-10-19T22:42:46.467Z,14.03
2022-10-19T22:45:15.150Z,14.01
2022-10-19T22:47:45.997Z,13.99
2022-10-19T22:50:14.592Z,13.99
2022-10-19T22:52:43.587Z,13.98
2022-10-19T22:55:12.564Z,14.00
2022-10-19T22:57:41.111Z,14.01
2022-10-19T23:00:11.671Z,14.02
2022-10-19T23:02:43.071Z,13.97
2022-10-19T23:05:13.597Z,13.95
2022-10-19T23:07:42.484Z,13.97
2022-10-19T23:10:11.732Z,13.96
2022-10-19T23:12:40.459Z,13.93
2022-10-19T23:15:11.684Z,13.89
2022-10-19T23:17:40.206Z,13.90
2022-10-19T23:20:10.519Z,13.88
2022-10-19T23:22:41.025Z,13.90
2022-10-19T23:25:10.627Z,13.89
2022-10-19T23:27:39.365Z,13.90
2022-10-19T23:30:09.793Z,13.91
2022-10-19T23:32:41.030Z,13.93
2022-10-19T23:35:10.327Z,13.90
2022-10-19T23:37:41.122Z,13.90
2022-10-19T23:40:11.453Z,13.88
2022-10-19T23:42:40.427Z,13.84
2022-10-19T23:45:10.513Z,13.85
2022-10-19T23:47:39.225Z,13.82
2022-10-19T23:50:09.122Z,13.83
2022-10-19T23:52:38.318Z,13.81
2022-10-19T23:55:12.174Z,13.80
2022-10-19T23:57:40.746Z,13.79
